createdAt,value
2022-09-15T00:02:15.414Z,79.48
2022-09-15T00:06:17.980Z,79.85
2022-09-15T00:10:19.725Z,79.74
2022-09-15T00:14:21.468Z,79.37
2022-09-15T00:18:23.487Z,79.34
2022-09-15T00:22:26.336Z,79.35
2022-09-15T00:26:29.995Z,79.41
2022-09-15T00:30:31.799Z,78.90
2022-09-15T00:34:33.634Z,78.85
2022-09-15T00:38:36.490Z,78.59
2022-09-15T00:42:38.376Z,78.46
2022-09-15T00:46:42.774Z,78.10
2022-09-15T00:50:49.675Z,78.09
2022-09-15T00:54:54.350Z,77.75
2022-09-15T00:59:01.585Z,77.62
2022-09-15T01:03:04.218Z,77.52
2022-09-15T01:07:07.661Z,77.77
2022-09-15T01:11:09.595Z,78.18
2022-09-15T01:15:11.947Z,77.81
2022-09-15T01:19:16.360Z,78.19
2022-09-15T01:23:53.409Z,77.62
2022-09-15T01:28:30.383Z,77.73
2022-09-15T01:33:02.517Z,77.67
2022-09-15T01:37:13.153Z,77.83
2022-09-15T01:41:25.550Z,77.59
2022-09-15T01:45:31.194Z,78.06
2022-09-15T01:49:50.698Z,78.35
2022-09-15T01:53:53.897Z,78.35
2022-09-15T01:57:55.563Z,78.28
2022-09-15T02:02:23.007Z,78.67
2022-09-15T02:06:36.106Z,78.71
2022-09-15T02:10:37.779Z,78.84
2022-09-15T02:15:01.140Z,79.29
2022-09-15T02:19:10.257Z,78.77
2022-09-15T02:23:28.819Z,79.24
2022-09-15T02:27:34.076Z,80.24
2022-09-15T02:31:39.565Z,79.49
2022-09-15T02:35:42.318Z,79.80
2022-09-15T02:39:49.588Z,80.14
2022-09-15T02:43:51.464Z,80.10
2022-09-15T02:47:53.204Z,80.01
2022-09-15T02:51:55.042Z,79.74
2022-09-15T02:55:58.062Z,79.47
2022-09-15T03:00:15.037Z,79.36
2022-09-15T03:04:16.799Z,79.16
2022-09-15T03:08:18.475Z,79.15
2022-09-15T03:12:20.112Z,78.85
2022-09-15T03:16:22.165Z,78.54
2022-09-15T03:20:30.400Z,78.20
2022-09-15T03:24:32.098Z,78.08
2022-09-15T03:28:33.842Z,77.52
2022-09-15T03:32:36.115Z,77.79
2022-09-15T03:36:38.352Z,77.40
2022-09-15T03:40:40.288Z,77.20
2022-09-15T03:44:42.083Z,76.97
2022-09-15T03:48:43.860Z,76.70
2022-09-15T03:52:45.500Z,76.48
2022-09-15T03:56:49.136Z,76.38
2022-09-15T04:00:50.924Z,76.00
2022-09-15T04:04:52.658Z,75.60
2022-09-15T04:08:55.137Z,75.65
2022-09-15T04:12:57.309Z,75.23
2022-09-15T04:16:59.043Z,74.61
2022-09-15T04:21:02.050Z,74.40
2022-09-15T04:25:04.136Z,73.84
2022-09-15T04:29:12.358Z,73.60
2022-09-15T04:33:13.919Z,73.13
2022-09-15T04:37:15.610Z,73.59
2022-09-15T04:41:18.779Z,73.29
2022-09-15T04:45:20.450Z,73.21
2022-09-15T04:49:22.110Z,72.96
2022-09-15T04:53:23.889Z,73.12
2022-09-15T04:57:25.692Z,73.42
2022-09-15T05:01:30.072Z,73.27
2022-09-15T05:05:34.519Z,73.58
2022-09-15T05:09:36.186Z,73.43
2022-09-15T05:13:39.754Z,73.51
2022-09-15T05:17:41.418Z,73.53
2022-09-15T05:21:43.273Z,73.79
2022-09-15T05:25:54.581Z,73.66
2022-09-15T05:30:09.962Z,73.57
2022-09-15T05:34:17.954Z,73.88
2022-09-15T05:38:19.858Z,73.93
2022-09-15T05:42:21.497Z,74.02
2022-09-15T05:46:26.156Z,74.38
2022-09-15T05:50:27.965Z,73.99
2022-09-15T05:54:29.637Z,74.46
2022-09-15T05:58:32.657Z,74.30
2022-09-15T06:02:34.498Z,74.48
2022-09-15T06:06:36.197Z,74.71
2022-09-15T06:10:37.928Z,75.00
2022-09-15T06:14:39.626Z,74.81
2022-09-15T06:18:42.285Z,75.07
2022-09-15T06:22:47.290Z,74.75
2022-09-15T06:26:48.954Z,75.04
2022-09-15T06:30:51.799Z,74.32
2022-09-15T06:34:53.450Z,74.86
2022-09-15T06:38:55.554Z,74.53
2022-09-15T06:42:57.259Z,74.51
2022-09-15T06:46:58.986Z,74.28
2022-09-15T06:51:01.596Z,74.15
2022-09-15T06:55:03.967Z,74.18
2022-09-15T06:59:06.239Z,74.28
2022-09-15T07:03:08.107Z,74.57
2022-09-15T07:07:09.933Z,74.87
2022-09-15T07:11:11.610Z,74.67
2022-09-15T07:15:13.468Z,74.71
2022-09-15T07:19:15.231Z,74.56
2022-09-15T07:23:18.193Z,74.45
2022-09-15T07:27:19.933Z,74.36
2022-09-15T07:31:23.676Z,74.05
2022-09-15T07:35:25.422Z,74.19
2022-09-15T07:39:27.048Z,74.13
2022-09-15T07:43:28.715Z,73.96
2022-09-15T07:47:30.377Z,73.19
2022-09-15T07:51:32.313Z,73.12
2022-09-15T07:55:33.989Z,72.64
2022-09-15T07:59:40.569Z,72.28
2022-09-15T08:03:45.475Z,71.60
2022-09-15T08:07:47.456Z,71.84
2022-09-15T08:11:49.710Z,71.47
2022-09-15T08:15:52.294Z,73.08
2022-09-15T08:19:54.137Z,74.57
2022-09-15T08:23:58.426Z,75.33
2022-09-15T08:28:00.199Z,75.94
2022-09-15T08:32:02.499Z,75.97
2022-09-15T08:36:07.561Z,76.20
2022-09-15T08:40:22.524Z,76.64
2022-09-15T08:44:46.581Z,75.98
2022-09-15T08:49:02.986Z,75.94
2022-09-15T08:53:14.118Z,75.91
2022-09-15T08:57:22.593Z,75.62
2022-09-15T09:01:42.575Z,75.93
2022-09-15T09:05:58.380Z,74.99
2022-09-15T09:09:59.999Z,74.54
2022-09-15T09:14:23.681Z,74.37
2022-09-15T09:19:03.768Z,73.75
2022-09-15T09:23:12.898Z,73.67
2022-09-15T09:27:20.689Z,72.87
2022-09-15T09:31:24.876Z,72.13
2022-09-15T09:35:43.201Z,71.36
2022-09-15T09:39:46.854Z,70.23
2022-09-15T09:43:49.399Z,68.40
2022-09-15T09:47:51.051Z,67.52
2022-09-15T09:51:55.266Z,65.86
2022-09-15T09:56:18.144Z,64.15
2022-09-15T10:00:37.900Z,62.84
2022-09-15T10:04:41.982Z,62.16
2022-09-15T10:08:59.001Z,60.22
2022-09-15T10:13:03.247Z,60.19
2022-09-15T10:17:17.243Z,59.14
2022-09-15T10:21:23.742Z,59.15
2022-09-15T10:25:44.168Z,59.61
2022-09-15T10:29:49.798Z,59.25
2022-09-15T10:33:52.747Z,59.40
2022-09-15T10:38:12.215Z,59.21
2022-09-15T10:42:19.673Z,56.57
2022-09-15T10:47:03.017Z,55.76
2022-09-15T10:51:17.376Z,56.06
2022-09-15T10:55:52.974Z,55.77
2022-09-15T11:00:10.053Z,56.09
2022-09-15T11:04:53.502Z,56.55
2022-09-15T11:09:17.483Z,56.30
2022-09-15T11:13:25.737Z,55.96
2022-09-15T11:17:46.279Z,55.15
2022-09-15T11:21:54.600Z,55.67
2022-09-15T11:26:04.920Z,55.16
2022-09-15T11:30:06.901Z,54.83
2022-09-15T11:34:23.639Z,54.21
2022-09-15T11:38:43.103Z,53.92
2022-09-15T11:43:00.656Z,53.54
2022-09-15T11:47:05.243Z,53.81
2022-09-15T11:51:07.621Z,54.07
2022-09-15T11:55:24.517Z,53.98
2022-09-15T11:59:39.239Z,54.48
2022-09-15T12:03:52.843Z,54.61
2022-09-15T12:08:13.075Z,54.65
2022-09-15T12:12:18.762Z,54.77
2022-09-15T12:16:21.440Z,55.05
2022-09-15T12:20:29.742Z,54.85
2022-09-15T12:24:40.574Z,54.79
2022-09-15T12:28:54.716Z,54.24
2022-09-15T12:32:56.565Z,54.52
2022-09-15T12:37:26.207Z,54.97
2022-09-15T12:41:29.213Z,54.77
2022-09-15T12:45:34.531Z,55.16
2022-09-15T12:49:43.505Z,55.74
2022-09-15T12:54:07.537Z,55.56
2022-09-15T12:58:15.790Z,55.91
2022-09-15T13:02:46.978Z,56.79
2022-09-15T13:07:16.755Z,56.76
2022-09-15T13:11:25.558Z,56.54
2022-09-15T13:15:28.066Z,56.18
2022-09-15T13:19:44.072Z,55.61
2022-09-15T13:23:51.080Z,54.89
2022-09-15T13:27:55.641Z,54.96
2022-09-15T13:32:20.280Z,54.76
2022-09-15T13:41:40.246Z,55.35
2022-09-15T13:46:20.502Z,55.20
2022-09-15T13:50:32.886Z,55.43
2022-09-15T13:54:34.604Z,55.69
2022-09-15T14:03:03.333Z,56.68
2022-09-15T14:07:05.127Z,57.21
2022-09-15T14:11:11.194Z,56.98
2022-09-15T14:15:18.387Z,57.49
2022-09-15T14:19:36.808Z,58.13
2022-09-15T14:23:45.213Z,57.96
2022-09-15T14:27:49.854Z,58.37
2022-09-15T14:31:51.986Z,58.46
2022-09-15T14:35:54.840Z,58.29
2022-09-15T14:39:58.932Z,58.11
2022-09-15T14:44:00.765Z,57.97
2022-09-15T14:48:07.313Z,58.33
2022-09-15T14:52:29.153Z,58.23
2022-09-15T14:56:35.317Z,58.55
2022-09-15T15:01:02.316Z,58.90
2022-09-15T15:05:46.023Z,58.85
2022-09-15T15:09:52.811Z,58.37
2022-09-15T15:13:55.155Z,58.43
2022-09-15T15:17:57.439Z,58.09
2022-09-15T15:22:14.272Z,58.12
2022-09-15T15:26:35.967Z,58.25
2022-09-15T15:30:47.228Z,57.70
2022-09-15T15:35:19.006Z,59.92
2022-09-15T15:39:24.929Z,60.50
2022-09-15T15:43:27.585Z,60.87
2022-09-15T15:47:36.284Z,61.45
2022-09-15T15:51:37.884Z,61.86
2022-09-15T15:55:41.853Z,61.71
2022-09-15T15:59:43.510Z,61.22
2022-09-15T16:03:45.245Z,61.24
2022-09-15T16:07:49.637Z,61.30
2022-09-15T16:11:51.403Z,61.88
2022-09-15T16:15:54.156Z,62.10
2022-09-15T16:19:56.037Z,62.62
2022-09-15T16:23:57.780Z,63.21
2022-09-15T16:28:00.580Z,63.28
2022-09-15T16:32:03.630Z,63.82
2022-09-15T16:36:08.930Z,64.09
2022-09-15T16:40:10.714Z,64.46
2022-09-15T16:44:19.861Z,63.90
2022-09-15T16:48:21.934Z,63.92
2022-09-15T16:52:23.650Z,63.61
2022-09-15T16:56:25.523Z,62.86
2022-09-15T17:00:28.599Z,62.45
2022-09-15T17:04:30.414Z,62.75
2022-09-15T17:08:33.274Z,62.56
2022-09-15T17:12:36.362Z,62.37
2022-09-15T17:16:38.379Z,62.73
2022-09-15T17:20:40.039Z,64.01
2022-09-15T17:24:41.841Z,65.47
2022-09-15T17:28:43.548Z,66.54
2022-09-15T17:32:45.417Z,68.31
2022-09-15T17:36:47.123Z,68.86
2022-09-15T17:40:50.632Z,69.64
2022-09-15T17:44:52.396Z,70.15
2022-09-15T17:48:54.283Z,70.49
2022-09-15T17:52:56.550Z,70.95
2022-09-15T17:56:58.210Z,71.01
2022-09-15T18:01:00.417Z,70.88
2022-09-15T18:05:02.127Z,70.51
2022-09-15T18:09:03.854Z,70.28
2022-09-15T18:13:06.337Z,70.13
2022-09-15T18:17:09.544Z,69.36
2022-09-15T18:21:25.883Z,69.37
2022-09-15T18:25:33.648Z,69.14
2022-09-15T18:29:35.366Z,69.85
2022-09-15T18:33:37.020Z,70.10
2022-09-15T18:37:38.993Z,70.42
2022-09-15T18:41:40.918Z,70.29
2022-09-15T18:45:42.910Z,70.38
2022-09-15T18:49:44.633Z,70.22
2022-09-15T18:53:49.752Z,70.57
2022-09-15T18:57:53.775Z,70.18
2022-09-15T19:01:55.512Z,70.88
2022-09-15T19:06:05.418Z,70.34
2022-09-15T19:10:07.812Z,70.26
2022-09-15T19:14:09.565Z,70.18
2022-09-15T19:18:11.268Z,70.33
2022-09-15T19:22:13.186Z,70.57
2022-09-15T19:26:17.021Z,70.55
2022-09-15T19:30:18.789Z,70.88
2022-09-15T19:34:21.206Z,71.39
2022-09-15T19:38:22.889Z,71.83
2022-09-15T19:42:24.598Z,71.74
2022-09-15T19:46:27.245Z,71.75
2022-09-15T19:50:29.179Z,72.20
2022-09-15T19:54:31.194Z,72.20
2022-09-15T19:58:33.297Z,72.42
2022-09-15T20:02:34.982Z,72.48
2022-09-15T20:06:37.033Z,72.60
2022-09-15T20:10:39.653Z,73.29
2022-09-15T20:14:41.528Z,73.86
2022-09-15T20:18:46.735Z,74.72
2022-09-15T20:22:48.449Z,74.98
2022-09-15T20:26:54.863Z,75.53
2022-09-15T20:31:04.322Z,75.99
2022-09-15T20:35:06.402Z,76.52
2022-09-15T20:39:13.099Z,76.26
2022-09-15T20:43:15.018Z,76.44
2022-09-15T20:47:16.762Z,76.80
2022-09-15T20:51:26.205Z,78.10
2022-09-15T20:55:27.948Z,78.89
2022-09-15T20:59:29.614Z,79.37
2022-09-15T21:03:31.360Z,79.54
2022-09-15T21:07:33.015Z,80.00
2022-09-15T21:11:34.899Z,79.48
2022-09-15T21:15:36.577Z,80.08
2022-09-15T21:19:40.225Z,80.02
2022-09-15T21:23:53.281Z,80.81
2022-09-15T21:27:55.074Z,80.91
2022-09-15T21:31:57.400Z,80.79
2022-09-15T21:36:08.231Z,80.78
2022-09-15T21:40:10.789Z,81.43
2022-09-15T21:44:12.550Z,81.79
2022-09-15T21:48:14.406Z,81.58
2022-09-15T21:52:16.108Z,81.67
2022-09-15T21:56:17.927Z,82.08
2022-09-15T22:00:19.595Z,82.32
2022-09-15T22:04:21.337Z,82.49
2022-09-15T22:08:23.111Z,82.69
2022-09-15T22:12:24.861Z,82.27
2022-09-15T22:16:26.905Z,82.49
2022-09-15T22:20:29.508Z,82.62
2022-09-15T22:24:31.203Z,82.66
2022-09-15T22:28:32.995Z,82.30
2022-09-15T22:32:35.355Z,82.41
2022-09-15T22:36:37.161Z,82.56
2022-09-15T22:40:39.034Z,82.66
2022-09-15T22:44:40.750Z,82.89
2022-09-15T22:48:43.659Z,82.90
2022-09-15T22:52:45.635Z,83.01
2022-09-15T22:56:47.337Z,83.62
2022-09-15T23:00:49.294Z,83.84
2022-09-15T23:04:51.334Z,84.25
2022-09-15T23:08:58.154Z,84.72
2022-09-15T23:12:59.915Z,85.37
2022-09-15T23:17:01.773Z,85.20
2022-09-15T23:21:09.244Z,85.41
2022-09-15T23:25:10.938Z,85.67
2022-09-15T23:29:12.632Z,85.96
2022-09-15T23:33:14.325Z,86.17
2022-09-15T23:37:16.115Z,86.81
2022-09-15T23:41:18.635Z,86.85
2022-09-15T23:45:20.301Z,87.11
2022-09-15T23:49:22.035Z,87.67
2022-09-15T23:53:24.261Z,87.91
2022-09-15T23:57:25.942Z,87.75
